Aérodrome :
LOGIN :

S'inscrire | Disclaimer

   EN    FR    IT 

 










Légende :    VFR   VFR Marginal   IFR   IFR Intensif   IFR Très Intensif
Visi : 
Plafond : 
>= 8 km
>= 3000ft
5 à 8 km
1000 à 3000 ft
1500m à 5 km
500 à 1000 ft
800 à 1500m
200 à 500 ft
< 800m
< 200 ft
Symboles :   Orages  Brouillard  Fortes neiges  Fortes précipitations  Vent > 20 kt
SIGMETs :   Divers  Orages  Givrage  Turbulence  Onde Orograph.  Cendres Volcan.







- Altitude de l'aérodrome : 308 ft
- Code IATA : ATH


LGAV - Eleftherios Venizelos Int.

DERNIER METAR :
  • 092250Z 23016KT 9999 FEW035 14/02 Q1009 NOSIG

METARs EXPIRÉS :
  • 092220Z 25008KT 210V280 9999 FEW035 14/05 Q1010 NOSIG
  • 092150Z 25012KT 9999 FEW035 14/05 Q1010 NOSIG
  • 092120Z 23011KT 9999 FEW035 14/06 Q1010 NOSIG
  • 092050Z 25011KT 9999 FEW035 14/07 Q1010 NOSIG

TAF TAF LGAV
Valide du 09 à 18h jusqu'au 10 à 18h UTC


091700Z 0918/1018 25014KT 9999 FEW030
TEMPO 0918/0921 25015G25KT
TEMPO 1003/1009 21015KT
BECMG 1007/1009 SCT030 BKN070
PROB30
TEMPO 1009/1015 5000 RA SCT020 BKN060
BECMG 1012/1014 33015KT
Pas de NOTAMs connus pour ce terrain.



MET'MAP, la Météo Aéronautique d'un coup d'oeil ! - Copyright ORBIFLY Décembre 2007 - Disclaimer

ORBIFLY MET'MAP TEAM :

Programmation & Développement : Alexandra Zaïnal
Conception & Développement : Baudouin d'Aumeries
Co-Programmation & Développement : Marc-Olivier Méhu
Soutien technique & logistique : Manuel Goepfert

Contact : metmap@orbifly.com




SOURCES & CREDITS :

   NOAA